Terminal Aerodrome Forecast
Issued by NWS

Home | Current Version | Previous Version | Text Only | Print | Product List | Glossary Off
Versions: 1 2 3 4 5 6 7 8 9 10 11 12 13 14 15 16 17 18 19 20 21 22 23 24 25 26

074
FTUS43 KLOT 032100 AAA
TAFORD
TAF AMD
KORD 032100Z 0321/0424 27007KT P6SM BKN025
     FM040000 27005KT P6SM OVC035
     FM041200 18005KT 6SM -SN OVC060
     FM041400 17006KT 3SM -SN BKN025 OVC050
     FM041530 17007KT 1SM -SN SCT007 OVC015
     FM041700 17008KT 1SM -SN BR OVC005
      TEMPO 0418/0421 3/4SM -SN BR OVC004
     FM042200 18008KT 3SM -SN BR OVC005=

USA.gov is the U.S. government's official web portal to all federal, state and local government web resources and services.